Granville, Massachusetts
Current Conditions -  °F | °C
As of 5:34 PM on Monday 26 Jan 2015 (Local Time) from KBAF Reporting Station
Light Snow Light Snow  
Wind Chill:   Ceiling: 2500
Heat Index: 20°   Visibility: 2.5mi
Dew Point: 13°   Wind: 9mph
Humidity: 74%   Direction: 10°N
Pressure: 30"   Gusts: NA
Location:  42.07°N, 72.86°W
Report Text: KBAF 262234Z 01008KT 2 1/2SM -SN OVC025 M07/M11 A3000 RMK AO2 P0000 T10671106
Loading
Personal Weather Stations






























Interactive Weather Map New forecast layout! Learn more

10-Day Weather Forecast

Advertisements
Track Severe Weather on mobile